Albert, Oklahoma
Current Conditions -  °F | °C
As of 7:55 PM on Thursday 18 Dec 2014 (Local Time) from KOJA Reporting Station
Overcast Overcast  
Wind Chill: 33°   Ceiling: 500
Heat Index: 37°   Visibility: 7mi
Dew Point: 36°   Wind: 6mph
Humidity: 93%   Direction: 40°NE
Pressure: 30.2"   Gusts: NA
Location:  35.23°N, 98.41°W
Report Text: KOJA 190155Z AUTO 04005KT 7SM OVC005 03/02 A3020 RMK AO2
Loading
Personal Weather Stations






























Interactive Weather Map New forecast layout! Learn more

10-Day Weather Forecast

Advertisements
Track Severe Weather on mobile